Waverly, OH

5:53 PM EDT on August 21, 2014 (GMT -0400)
Thomas Hollow | Change Station
CLOSE
Current Station
Personal Weather Station
Location: Lucasville, OH
Elevation: 719 ft
Nearby Weather Stations

Elev 719 ft 38.89 °N, 82.97 °W | Updated 7 minutes ago

Overcast
Overcast
79.3 °F
Feels Like 78 °F
N
3.6
Wind Variable Wind from SE
Gusts 3.6 mph

Today
High -- | Low -- °F
--% Chance of Precip.
Yesterday
High -- | Low -- °F
Precip. -- in
6:50 AM 8:18 PM
Waning Crescent, 12% visible
Pressure 30.04 in
Visibility 10.0 miles
Clouds Scattered Clouds 3200 ft
Scattered Clouds 6000 ft
Mostly Cloudy 9000 ft
Heat Index 78 °F
Dew Point 31 °F
Humidity 17%
Rainfall 0.00 in
Snow Depth Not available.
UV 2 out of 12
Pollen 8.80 out of 12
Air Quality Not available.
Flu Activity Not available.
METAR KUNI 212115Z AUTO 20004KT 10SM -RA SCT032 SCT060 BKN090 24/20 A3004 RMK AO2 LTG DSNT S T02370204

More Conditions Fewer Conditions

Pressure 30.04 in
Visibility 10.0 miles
Clouds Scattered Clouds 3200 ft
Scattered Clouds 6000 ft
Mostly Cloudy 9000 ft
Heat Index 78 °F
Dew Point 31 °F
Humidity 17%
Rainfall 0.00 in
Snow Depth Not available.
UV 2 out of 12
Pollen 8.80 out of 12
Air Quality Not available.
Flu Activity Not available.
METAR KUNI 212115Z AUTO 20004KT 10SM -RA SCT032 SCT060 BKN090 24/20 A3004 RMK AO2 LTG DSNT S T02370204

More Conditions Fewer Conditions

10-Day Weather Forecast

Almanac

Astronomy

Aug. 21, 2014 Rise Set
Actual Time 6:50 AM EDT 8:18 PM EDT
Civil Twilight 6:22 AM EDT 8:46 PM EDT
Nautical Twilight 5:48 AM EDT 9:20 PM EDT
Astronomical Twilight 5:13 AM EDT 9:56 PM EDT
Moon 3:20 AM EDT 5:46 PM EDT
Length of Visible Light 14h 24m
Length of Day
13h 28m
Tomorrow will be 2m 20s shorter.
Waning Crescent, 12% of the Moon is Illuminated
Today
Waning Crescent
Aug 25
New
Sep 2
First Quarter
Sep 8
Full
Sep 15
Last Quarter

Today's Extremes

State Highs State Lows

Community

WunderPhotos

Upload Photos

1,746,021 photos uploaded!

WunderBlogs® & News

Nearby

Snow Depth

Station Depth Elevation
No new snow has been reported.

Earthquake Activity

City Distance Mag. Time & Date
No recent earthquake activity has been reported nearby.
Minimum magnitude displayed is 2.5.

Coastal Water Temperatures

Place Temperature
No Stations Reporting

Nearby Weather Stations